sensor_id;sensor_type;location;lat;lon;timestamp;temperature;humidity
73643;DHT22;61938;48.652;9.292;2023-08-08T00:01:18;11.40;99.90
73643;DHT22;61938;48.652;9.292;2023-08-08T00:03:43;11.40;99.90
73643;DHT22;61938;48.652;9.292;2023-08-08T00:06:09;11.40;99.90
73643;DHT22;61938;48.652;9.292;2023-08-08T00:08:35;11.30;99.90
73643;DHT22;61938;48.652;9.292;2023-08-08T00:11:00;11.30;99.90
73643;DHT22;61938;48.652;9.292;2023-08-08T00:13:26;11.20;99.90
73643;DHT22;61938;48.652;9.292;2023-08-08T00:15:51;11.20;99.90
73643;DHT22;61938;48.652;9.292;2023-08-08T00:18:17;11.10;99.90
73643;DHT22;61938;48.652;9.292;2023-08-08T00:20:42;11.20;99.90
73643;DHT22;61938;48.652;9.292;2023-08-08T00:23:08;11.20;99.90
73643;DHT22;61938;48.652;9.292;2023-08-08T00:25:33;11.20;99.90
73643;DHT22;61938;48.652;9.292;2023-08-08T00:27:59;11.30;99.90
73643;DHT22;61938;48.652;9.292;2023-08-08T00:30:24;11.30;99.90
73643;DHT22;61938;48.652;9.292;2023-08-08T00:32:50;11.40;99.90
73643;DHT22;61938;48.652;9.292;2023-08-08T00:35:15;11.50;99.90
73643;DHT22;61938;48.652;9.292;2023-08-08T00:37:41;11.60;99.90
73643;DHT22;61938;48.652;9.292;2023-08-08T00:40:07;11.60;99.90
73643;DHT22;61938;48.652;9.292;2023-08-08T00:42:33;11.60;99.90
73643;DHT22;61938;48.652;9.292;2023-08-08T00:44:58;11.70;99.90
73643;DHT22;61938;48.652;9.292;2023-08-08T00:47:32;11.70;99.90
73643;DHT22;61938;48.652;9.292;2023-08-08T00:49:58;11.80;99.90
73643;DHT22;61938;48.652;9.292;2023-08-08T00:52:25;11.80;99.90
73643;DHT22;61938;48.652;9.292;2023-08-08T00:54:51;11.90;99.90
73643;DHT22;61938;48.652;9.292;2023-08-08T00:57:17;11.90;99.90
73643;DHT22;61938;48.652;9.292;2023-08-08T00:59:43;11.90;99.90
73643;DHT22;61938;48.652;9.292;2023-08-08T01:02:08;12.00;99.90
73643;DHT22;61938;48.652;9.292;2023-08-08T01:04:34;12.00;99.90
73643;DHT22;61938;48.652;9.292;2023-08-08T01:07:19;12.10;99.90
73643;DHT22;61938;48.652;9.292;2023-08-08T01:12:23;12.10;99.90
73643;DHT22;61938;48.652;9.292;2023-08-08T01:14:50;12.10;99.90
73643;DHT22;61938;48.652;9.292;2023-08-08T01:17:16;12.10;99.90
73643;DHT22;61938;48.652;9.292;2023-08-08T01:19:43;12.10;99.90
73643;DHT22;61938;48.652;9.292;2023-08-08T01:22:16;12.10;99.90
73643;DHT22;61938;48.652;9.292;2023-08-08T01:24:44;12.10;99.90
73643;DHT22;61938;48.652;9.292;2023-08-08T01:27:10;12.10;99.90
73643;DHT22;61938;48.652;9.292;2023-08-08T01:29:36;12.10;99.90
73643;DHT22;61938;48.652;9.292;2023-08-08T01:32:03;12.10;99.90
73643;DHT22;61938;48.652;9.292;2023-08-08T01:34:28;12.10;99.90
73643;DHT22;61938;48.652;9.292;2023-08-08T01:36:57;12.10;99.90
73643;DHT22;61938;48.652;9.292;2023-08-08T01:39:28;12.10;99.90
73643;DHT22;61938;48.652;9.292;2023-08-08T01:41:55;12.10;99.90
73643;DHT22;61938;48.652;9.292;2023-08-08T01:44:22;12.10;99.90
73643;DHT22;61938;48.652;9.292;2023-08-08T01:46:49;12.10;99.90
73643;DHT22;61938;48.652;9.292;2023-08-08T01:49:14;12.10;99.90
73643;DHT22;61938;48.652;9.292;2023-08-08T01:51:40;12.10;99.90
73643;DHT22;61938;48.652;9.292;2023-08-08T01:54:06;12.10;99.90
73643;DHT22;61938;48.652;9.292;2023-08-08T01:56:31;12.10;99.90
73643;DHT22;61938;48.652;9.292;2023-08-08T01:58:57;12.10;99.90
73643;DHT22;61938;48.652;9.292;2023-08-08T02:01:22;12.10;99.90
73643;DHT22;61938;48.652;9.292;2023-08-08T02:03:48;12.10;99.90
73643;DHT22;61938;48.652;9.292;2023-08-08T02:06:13;12.10;99.90
73643;DHT22;61938;48.652;9.292;2023-08-08T02:08:39;12.10;99.90
73643;DHT22;61938;48.652;9.292;2023-08-08T02:11:05;12.10;99.90
73643;DHT22;61938;48.652;9.292;2023-08-08T02:13:30;12.00;99.90
73643;DHT22;61938;48.652;9.292;2023-08-08T02:15:56;12.10;99.90
73643;DHT22;61938;48.652;9.292;2023-08-08T02:18:21;12.00;99.90
73643;DHT22;61938;48.652;9.292;2023-08-08T02:20:47;12.10;99.90
73643;DHT22;61938;48.652;9.292;2023-08-08T02:23:12;12.10;99.90
73643;DHT22;61938;48.652;9.292;2023-08-08T02:25:38;12.10;99.90
73643;DHT22;61938;48.652;9.292;2023-08-08T02:28:04;12.10;99.90
73643;DHT22;61938;48.652;9.292;2023-08-08T02:30:29;12.10;99.90
73643;DHT22;61938;48.652;9.292;2023-08-08T02:32:55;12.10;99.90
73643;DHT22;61938;48.652;9.292;2023-08-08T02:35:20;12.20;99.90
73643;DHT22;61938;48.652;9.292;2023-08-08T02:37:46;12.20;99.90
73643;DHT22;61938;48.652;9.292;2023-08-08T02:40:11;12.20;99.90
73643;DHT22;61938;48.652;9.292;2023-08-08T02:42:37;12.20;99.90
73643;DHT22;61938;48.652;9.292;2023-08-08T02:45:02;12.20;99.90
73643;DHT22;61938;48.652;9.292;2023-08-08T02:47:28;12.20;99.90
73643;DHT22;61938;48.652;9.292;2023-08-08T02:49:54;12.20;99.90
73643;DHT22;61938;48.652;9.292;2023-08-08T02:52:19;12.20;99.90
73643;DHT22;61938;48.652;9.292;2023-08-08T02:54:45;12.30;99.90
73643;DHT22;61938;48.652;9.292;2023-08-08T02:57:10;12.30;99.90
73643;DHT22;61938;48.652;9.292;2023-08-08T02:59:37;12.30;99.90
73643;DHT22;61938;48.652;9.292;2023-08-08T03:02:02;12.30;99.90
73643;DHT22;61938;48.652;9.292;2023-08-08T03:04:29;12.20;99.90
73643;DHT22;61938;48.652;9.292;2023-08-08T03:06:54;12.20;99.90
73643;DHT22;61938;48.652;9.292;2023-08-08T03:09:20;12.20;99.90
73643;DHT22;61938;48.652;9.292;2023-08-08T03:11:46;12.20;99.90
73643;DHT22;61938;48.652;9.292;2023-08-08T03:14:11;12.20;99.90
73643;DHT22;61938;48.652;9.292;2023-08-08T03:16:37;12.20;99.90
73643;DHT22;61938;48.652;9.292;2023-08-08T03:19:02;12.20;99.90
73643;DHT22;61938;48.652;9.292;2023-08-08T03:21:28;12.20;99.90
73643;DHT22;61938;48.652;9.292;2023-08-08T03:23:54;12.20;99.90
73643;DHT22;61938;48.652;9.292;2023-08-08T03:26:19;12.20;99.90
73643;DHT22;61938;48.652;9.292;2023-08-08T03:28:45;12.20;99.90
73643;DHT22;61938;48.652;9.292;2023-08-08T03:31:10;12.10;99.90
73643;DHT22;61938;48.652;9.292;2023-08-08T03:33:36;12.10;99.90
73643;DHT22;61938;48.652;9.292;2023-08-08T03:36:01;12.00;99.90
73643;DHT22;61938;48.652;9.292;2023-08-08T03:38:27;12.00;99.90
73643;DHT22;61938;48.652;9.292;2023-08-08T03:40:52;11.90;99.90
73643;DHT22;61938;48.652;9.292;2023-08-08T03:43:18;11.90;99.90
73643;DHT22;61938;48.652;9.292;2023-08-08T03:45:44;11.80;99.90
73643;DHT22;61938;48.652;9.292;2023-08-08T03:48:10;11.80;99.90
73643;DHT22;61938;48.652;9.292;2023-08-08T03:50:35;11.80;99.90
73643;DHT22;61938;48.652;9.292;2023-08-08T03:53:01;11.80;99.90
73643;DHT22;61938;48.652;9.292;2023-08-08T03:55:27;11.80;99.90
73643;DHT22;61938;48.652;9.292;2023-08-08T03:57:52;11.80;99.90
73643;DHT22;61938;48.652;9.292;2023-08-08T04:00:17;11.90;99.90
73643;DHT22;61938;48.652;9.292;2023-08-08T04:02:43;13.40;99.90
73643;DHT22;61938;48.652;9.292;2023-08-08T04:05:09;11.90;99.90
73643;DHT22;61938;48.652;9.292;2023-08-08T04:07:34;12.00;99.90
73643;DHT22;61938;48.652;9.292;2023-08-08T04:10:00;12.00;99.90
73643;DHT22;61938;48.652;9.292;2023-08-08T04:12:26;12.00;99.90
73643;DHT22;61938;48.652;9.292;2023-08-08T04:14:51;12.10;99.90
73643;DHT22;61938;48.652;9.292;2023-08-08T04:17:17;12.10;99.90
73643;DHT22;61938;48.652;9.292;2023-08-08T04:19:42;12.10;99.90
73643;DHT22;61938;48.652;9.292;2023-08-08T04:22:08;12.20;99.90
73643;DHT22;61938;48.652;9.292;2023-08-08T04:24:34;12.20;99.90
73643;DHT22;61938;48.652;9.292;2023-08-08T04:26:59;12.20;99.90
73643;DHT22;61938;48.652;9.292;2023-08-08T04:29:25;12.20;99.90
73643;DHT22;61938;48.652;9.292;2023-08-08T04:31:50;12.20;99.90
73643;DHT22;61938;48.652;9.292;2023-08-08T04:34:16;12.20;99.90
73643;DHT22;61938;48.652;9.292;2023-08-08T04:36:42;12.30;99.90
73643;DHT22;61938;48.652;9.292;2023-08-08T04:39:08;12.30;99.90
73643;DHT22;61938;48.652;9.292;2023-08-08T04:41:33;12.30;99.90
73643;DHT22;61938;48.652;9.292;2023-08-08T04:43:59;12.30;99.90
73643;DHT22;61938;48.652;9.292;2023-08-08T04:46:24;12.30;99.90
73643;DHT22;61938;48.652;9.292;2023-08-08T04:48:50;12.30;99.90
73643;DHT22;61938;48.652;9.292;2023-08-08T04:51:15;12.30;99.90
73643;DHT22;61938;48.652;9.292;2023-08-08T04:53:41;12.30;99.90
73643;DHT22;61938;48.652;9.292;2023-08-08T04:56:06;12.30;99.90
73643;DHT22;61938;48.652;9.292;2023-08-08T04:58:32;12.30;99.90
73643;DHT22;61938;48.652;9.292;2023-08-08T05:00:57;12.30;99.90
73643;DHT22;61938;48.652;9.292;2023-08-08T05:03:23;12.30;99.90
73643;DHT22;61938;48.652;9.292;2023-08-08T05:05:48;12.30;99.90
73643;DHT22;61938;48.652;9.292;2023-08-08T05:08:14;12.30;99.90
73643;DHT22;61938;48.652;9.292;2023-08-08T05:10:39;12.30;99.90
73643;DHT22;61938;48.652;9.292;2023-08-08T05:13:05;12.30;99.90
73643;DHT22;61938;48.652;9.292;2023-08-08T05:15:31;12.30;99.90
73643;DHT22;61938;48.652;9.292;2023-08-08T05:17:56;12.30;99.90
73643;DHT22;61938;48.652;9.292;2023-08-08T05:20:22;12.40;99.90
73643;DHT22;61938;48.652;9.292;2023-08-08T05:22:48;12.40;99.90
73643;DHT22;61938;48.652;9.292;2023-08-08T05:25:14;12.50;99.90
73643;DHT22;61938;48.652;9.292;2023-08-08T05:27:39;12.50;99.90
73643;DHT22;61938;48.652;9.292;2023-08-08T05:30:05;12.70;99.90
73643;DHT22;61938;48.652;9.292;2023-08-08T05:32:31;12.90;99.90
73643;DHT22;61938;48.652;9.292;2023-08-08T05:34:57;13.10;99.90
73643;DHT22;61938;48.652;9.292;2023-08-08T05:37:23;13.20;99.90
73643;DHT22;61938;48.652;9.292;2023-08-08T05:39:49;13.40;99.90
73643;DHT22;61938;48.652;9.292;2023-08-08T05:42:14;13.40;99.90
73643;DHT22;61938;48.652;9.292;2023-08-08T05:44:40;13.40;99.90
73643;DHT22;61938;48.652;9.292;2023-08-08T05:47:08;13.40;99.90
73643;DHT22;61938;48.652;9.292;2023-08-08T05:49:34;13.40;99.90
73643;DHT22;61938;48.652;9.292;2023-08-08T05:52:00;13.40;99.90
73643;DHT22;61938;48.652;9.292;2023-08-08T05:54:26;13.40;99.90
73643;DHT22;61938;48.652;9.292;2023-08-08T05:56:52;13.60;99.90
73643;DHT22;61938;48.652;9.292;2023-08-08T05:59:17;13.80;99.90
73643;DHT22;61938;48.652;9.292;2023-08-08T06:01:43;13.90;99.90
73643;DHT22;61938;48.652;9.292;2023-08-08T06:04:09;14.00;99.90
73643;DHT22;61938;48.652;9.292;2023-08-08T06:06:35;14.00;99.90
73643;DHT22;61938;48.652;9.292;2023-08-08T06:09:00;13.90;99.90
73643;DHT22;61938;48.652;9.292;2023-08-08T06:11:26;13.90;99.90
73643;DHT22;61938;48.652;9.292;2023-08-08T06:13:51;14.00;99.90
73643;DHT22;61938;48.652;9.292;2023-08-08T06:16:17;14.10;99.90
73643;DHT22;61938;48.652;9.292;2023-08-08T06:18:43;14.20;99.90
73643;DHT22;61938;48.652;9.292;2023-08-08T06:21:09;14.50;99.90
73643;DHT22;61938;48.652;9.292;2023-08-08T06:23:35;14.40;99.90
73643;DHT22;61938;48.652;9.292;2023-08-08T06:26:00;14.40;99.90
73643;DHT22;61938;48.652;9.292;2023-08-08T06:28:26;14.60;99.90
73643;DHT22;61938;48.652;9.292;2023-08-08T06:30:51;14.90;99.90
73643;DHT22;61938;48.652;9.292;2023-08-08T06:33:17;15.10;99.90
73643;DHT22;61938;48.652;9.292;2023-08-08T06:35:42;15.30;99.90
73643;DHT22;61938;48.652;9.292;2023-08-08T06:38:08;15.50;99.90
73643;DHT22;61938;48.652;9.292;2023-08-08T06:40:34;15.60;99.90
73643;DHT22;61938;48.652;9.292;2023-08-08T06:42:59;15.70;99.90
73643;DHT22;61938;48.652;9.292;2023-08-08T06:45:25;15.80;99.90
73643;DHT22;61938;48.652;9.292;2023-08-08T06:47:50;15.70;99.90
73643;DHT22;61938;48.652;9.292;2023-08-08T06:50:16;15.80;99.90
73643;DHT22;61938;48.652;9.292;2023-08-08T06:52:42;15.90;99.90
73643;DHT22;61938;48.652;9.292;2023-08-08T06:55:08;16.00;99.90
73643;DHT22;61938;48.652;9.292;2023-08-08T06:57:34;16.10;99.90
73643;DHT22;61938;48.652;9.292;2023-08-08T07:00:00;16.10;99.90
73643;DHT22;61938;48.652;9.292;2023-08-08T07:02:26;16.30;99.90
73643;DHT22;61938;48.652;9.292;2023-08-08T07:04:51;16.50;99.90
73643;DHT22;61938;48.652;9.292;2023-08-08T07:07:17;16.80;99.90
73643;DHT22;61938;48.652;9.292;2023-08-08T07:09:42;16.90;99.90
73643;DHT22;61938;48.652;9.292;2023-08-08T07:12:09;17.00;99.90
73643;DHT22;61938;48.652;9.292;2023-08-08T07:14:34;17.20;99.90
73643;DHT22;61938;48.652;9.292;2023-08-08T07:17:00;17.30;99.90
73643;DHT22;61938;48.652;9.292;2023-08-08T07:19:27;17.30;99.90
73643;DHT22;61938;48.652;9.292;2023-08-08T07:21:53;17.30;99.90
73643;DHT22;61938;48.652;9.292;2023-08-08T07:24:18;17.40;99.90
73643;DHT22;61938;48.652;9.292;2023-08-08T07:26:45;17.40;99.90
73643;DHT22;61938;48.652;9.292;2023-08-08T07:29:10;17.60;99.90
73643;DHT22;61938;48.652;9.292;2023-08-08T07:31:36;17.80;99.90
73643;DHT22;61938;48.652;9.292;2023-08-08T07:34:01;17.90;99.90
73643;DHT22;61938;48.652;9.292;2023-08-08T07:36:27;18.00;99.90
73643;DHT22;61938;48.652;9.292;2023-08-08T07:38:52;18.30;99.90
73643;DHT22;61938;48.652;9.292;2023-08-08T07:41:21;18.40;99.90
73643;DHT22;61938;48.652;9.292;2023-08-08T07:43:49;18.50;99.90
73643;DHT22;61938;48.652;9.292;2023-08-08T07:46:14;18.60;99.90
73643;DHT22;61938;48.652;9.292;2023-08-08T07:48:40;18.90;99.90
73643;DHT22;61938;48.652;9.292;2023-08-08T07:51:05;19.00;99.90
73643;DHT22;61938;48.652;9.292;2023-08-08T07:53:31;19.10;99.90
73643;DHT22;61938;48.652;9.292;2023-08-08T07:55:56;19.30;99.90
73643;DHT22;61938;48.652;9.292;2023-08-08T07:58:22;19.30;99.90
73643;DHT22;61938;48.652;9.292;2023-08-08T08:00:51;19.40;99.90
73643;DHT22;61938;48.652;9.292;2023-08-08T08:03:21;19.40;99.90
73643;DHT22;61938;48.652;9.292;2023-08-08T08:05:47;19.50;99.90
73643;DHT22;61938;48.652;9.292;2023-08-08T08:08:12;19.70;99.90
73643;DHT22;61938;48.652;9.292;2023-08-08T08:10:38;19.80;99.90
73643;DHT22;61938;48.652;9.292;2023-08-08T08:13:04;19.90;99.90
73643;DHT22;61938;48.652;9.292;2023-08-08T08:15:29;19.80;99.90
73643;DHT22;61938;48.652;9.292;2023-08-08T08:17:56;19.60;99.90
73643;DHT22;61938;48.652;9.292;2023-08-08T08:20:21;19.50;99.90
73643;DHT22;61938;48.652;9.292;2023-08-08T08:22:47;19.60;99.90
73643;DHT22;61938;48.652;9.292;2023-08-08T08:25:14;19.80;99.90
73643;DHT22;61938;48.652;9.292;2023-08-08T08:27:40;19.90;99.90
73643;DHT22;61938;48.652;9.292;2023-08-08T08:30:06;19.80;99.90
73643;DHT22;61938;48.652;9.292;2023-08-08T08:32:36;19.60;99.90
73643;DHT22;61938;48.652;9.292;2023-08-08T08:35:03;19.30;99.90
73643;DHT22;61938;48.652;9.292;2023-08-08T08:37:30;19.30;99.90
73643;DHT22;61938;48.652;9.292;2023-08-08T08:39:55;19.30;99.90
73643;DHT22;61938;48.652;9.292;2023-08-08T08:42:22;19.30;99.90
73643;DHT22;61938;48.652;9.292;2023-08-08T08:44:47;19.40;99.90
73643;DHT22;61938;48.652;9.292;2023-08-08T08:47:15;19.50;99.90
73643;DHT22;61938;48.652;9.292;2023-08-08T08:49:42;19.40;99.90
73643;DHT22;61938;48.652;9.292;2023-08-08T08:52:11;19.80;99.90
73643;DHT22;61938;48.652;9.292;2023-08-08T08:54:36;19.90;99.90
73643;DHT22;61938;48.652;9.292;2023-08-08T08:57:02;20.20;99.90
73643;DHT22;61938;48.652;9.292;2023-08-08T08:59:29;20.30;99.90
73643;DHT22;61938;48.652;9.292;2023-08-08T09:01:55;20.10;99.90
73643;DHT22;61938;48.652;9.292;2023-08-08T09:04:21;20.00;99.90
73643;DHT22;61938;48.652;9.292;2023-08-08T09:06:47;20.30;99.90
73643;DHT22;61938;48.652;9.292;2023-08-08T09:09:13;20.40;99.90
73643;DHT22;61938;48.652;9.292;2023-08-08T09:11:43;20.10;99.90
73643;DHT22;61938;48.652;9.292;2023-08-08T09:14:21;20.40;99.90
73643;DHT22;61938;48.652;9.292;2023-08-08T09:16:47;20.80;99.90
73643;DHT22;61938;48.652;9.292;2023-08-08T09:19:14;21.00;99.90
73643;DHT22;61938;48.652;9.292;2023-08-08T09:21:39;20.80;99.90
73643;DHT22;61938;48.652;9.292;2023-08-08T09:24:05;20.70;99.90
73643;DHT22;61938;48.652;9.292;2023-08-08T09:26:31;20.90;99.90
73643;DHT22;61938;48.652;9.292;2023-08-08T09:28:56;20.60;99.90
73643;DHT22;61938;48.652;9.292;2023-08-08T09:31:25;21.00;99.90
73643;DHT22;61938;48.652;9.292;2023-08-08T09:33:50;21.20;99.90
73643;DHT22;61938;48.652;9.292;2023-08-08T09:36:17;21.30;99.90
73643;DHT22;61938;48.652;9.292;2023-08-08T09:38:44;21.20;99.90
73643;DHT22;61938;48.652;9.292;2023-08-08T09:41:11;21.10;99.90
73643;DHT22;61938;48.652;9.292;2023-08-08T09:43:36;20.90;99.90
73643;DHT22;61938;48.652;9.292;2023-08-08T09:46:02;21.10;99.90
73643;DHT22;61938;48.652;9.292;2023-08-08T09:48:31;21.40;99.90
73643;DHT22;61938;48.652;9.292;2023-08-08T09:50:58;21.40;99.90
73643;DHT22;61938;48.652;9.292;2023-08-08T09:53:27;21.30;99.90
73643;DHT22;61938;48.652;9.292;2023-08-08T09:55:54;21.40;99.90
73643;DHT22;61938;48.652;9.292;2023-08-08T09:58:21;21.70;99.90
73643;DHT22;61938;48.652;9.292;2023-08-08T10:00:49;21.70;99.90
73643;DHT22;61938;48.652;9.292;2023-08-08T10:03:16;21.90;99.90
73643;DHT22;61938;48.652;9.292;2023-08-08T10:05:42;21.80;99.90
73643;DHT22;61938;48.652;9.292;2023-08-08T10:08:08;21.60;99.90
73643;DHT22;61938;48.652;9.292;2023-08-08T10:10:34;21.70;99.90
73643;DHT22;61938;48.652;9.292;2023-08-08T10:13:01;21.50;99.90
73643;DHT22;61938;48.652;9.292;2023-08-08T10:15:27;21.60;99.90
73643;DHT22;61938;48.652;9.292;2023-08-08T10:17:57;21.50;99.90
73643;DHT22;61938;48.652;9.292;2023-08-08T10:20:24;21.40;99.90
73643;DHT22;61938;48.652;9.292;2023-08-08T10:22:52;21.40;99.90
73643;DHT22;61938;48.652;9.292;2023-08-08T10:25:27;21.60;99.90
73643;DHT22;61938;48.652;9.292;2023-08-08T10:28:09;22.10;99.90
73643;DHT22;61938;48.652;9.292;2023-08-08T10:30:46;22.50;99.90
73643;DHT22;61938;48.652;9.292;2023-08-08T10:33:26;22.60;99.90
73643;DHT22;61938;48.652;9.292;2023-08-08T10:35:58;22.40;99.90
73643;DHT22;61938;48.652;9.292;2023-08-08T10:38:25;21.90;99.90
73643;DHT22;61938;48.652;9.292;2023-08-08T10:40:56;21.60;99.90
73643;DHT22;61938;48.652;9.292;2023-08-08T10:43:28;21.80;99.90
73643;DHT22;61938;48.652;9.292;2023-08-08T10:45:58;22.00;99.90
73643;DHT22;61938;48.652;9.292;2023-08-08T10:48:25;22.30;99.90
73643;DHT22;61938;48.652;9.292;2023-08-08T10:50:54;22.30;99.90
73643;DHT22;61938;48.652;9.292;2023-08-08T10:53:23;22.40;99.90
73643;DHT22;61938;48.652;9.292;2023-08-08T10:55:57;22.40;99.90
73643;DHT22;61938;48.652;9.292;2023-08-08T10:58:35;22.30;99.90
73643;DHT22;61938;48.652;9.292;2023-08-08T11:01:01;22.30;99.90
73643;DHT22;61938;48.652;9.292;2023-08-08T11:03:27;22.70;99.90
73643;DHT22;61938;48.652;9.292;2023-08-08T11:05:52;22.70;99.90
73643;DHT22;61938;48.652;9.292;2023-08-08T11:08:18;22.20;99.90
73643;DHT22;61938;48.652;9.292;2023-08-08T11:10:51;22.50;99.90
73643;DHT22;61938;48.652;9.292;2023-08-08T11:13:17;22.20;99.90
73643;DHT22;61938;48.652;9.292;2023-08-08T11:15:43;22.10;99.90
73643;DHT22;61938;48.652;9.292;2023-08-08T11:18:08;22.10;99.90
73643;DHT22;61938;48.652;9.292;2023-08-08T11:20:35;22.00;99.90
73643;DHT22;61938;48.652;9.292;2023-08-08T11:23:02;21.90;99.90
73643;DHT22;61938;48.652;9.292;2023-08-08T11:25:30;22.20;99.90
73643;DHT22;61938;48.652;9.292;2023-08-08T11:27:57;22.10;99.90
73643;DHT22;61938;48.652;9.292;2023-08-08T11:30:24;22.30;99.90
73643;DHT22;61938;48.652;9.292;2023-08-08T11:32:53;22.80;99.90
73643;DHT22;61938;48.652;9.292;2023-08-08T11:35:23;23.40;99.90
73643;DHT22;61938;48.652;9.292;2023-08-08T11:37:51;23.10;99.90
73643;DHT22;61938;48.652;9.292;2023-08-08T11:40:17;23.40;99.90
73643;DHT22;61938;48.652;9.292;2023-08-08T11:42:44;23.70;99.90
73643;DHT22;61938;48.652;9.292;2023-08-08T11:45:13;23.80;99.90
73643;DHT22;61938;48.652;9.292;2023-08-08T11:47:41;23.90;99.90
73643;DHT22;61938;48.652;9.292;2023-08-08T11:50:09;23.70;99.60
73643;DHT22;61938;48.652;9.292;2023-08-08T11:52:40;23.70;99.70
73643;DHT22;61938;48.652;9.292;2023-08-08T11:55:09;23.90;99.90
73643;DHT22;61938;48.652;9.292;2023-08-08T11:57:36;23.70;99.90
73643;DHT22;61938;48.652;9.292;2023-08-08T12:00:10;23.30;99.90
73643;DHT22;61938;48.652;9.292;2023-08-08T12:02:47;22.90;99.90
73643;DHT22;61938;48.652;9.292;2023-08-08T12:05:14;23.20;99.40
73643;DHT22;61938;48.652;9.292;2023-08-08T12:07:43;23.40;98.10
73643;DHT22;61938;48.652;9.292;2023-08-08T12:10:21;23.60;98.60
73643;DHT22;61938;48.652;9.292;2023-08-08T12:12:53;24.10;98.00
73643;DHT22;61938;48.652;9.292;2023-08-08T12:15:20;23.80;97.70
73643;DHT22;61938;48.652;9.292;2023-08-08T12:17:46;24.00;97.30
73643;DHT22;61938;48.652;9.292;2023-08-08T12:20:11;24.30;95.90
73643;DHT22;61938;48.652;9.292;2023-08-08T12:22:37;24.40;96.90
73643;DHT22;61938;48.652;9.292;2023-08-08T12:25:03;24.20;96.30
73643;DHT22;61938;48.652;9.292;2023-08-08T12:27:30;23.80;95.80
73643;DHT22;61938;48.652;9.292;2023-08-08T12:29:55;23.40;94.30
73643;DHT22;61938;48.652;9.292;2023-08-08T12:32:22;23.20;95.80
73643;DHT22;61938;48.652;9.292;2023-08-08T12:34:52;23.00;96.60
73643;DHT22;61938;48.652;9.292;2023-08-08T12:37:17;22.80;94.70
73643;DHT22;61938;48.652;9.292;2023-08-08T12:39:43;22.80;94.10
73643;DHT22;61938;48.652;9.292;2023-08-08T12:42:08;22.90;95.70
73643;DHT22;61938;48.652;9.292;2023-08-08T12:44:34;23.20;95.90
73643;DHT22;61938;48.652;9.292;2023-08-08T12:47:00;23.30;94.30
73643;DHT22;61938;48.652;9.292;2023-08-08T12:49:26;23.20;94.30
73643;DHT22;61938;48.652;9.292;2023-08-08T12:51:52;23.20;95.70
73643;DHT22;61938;48.652;9.292;2023-08-08T12:54:18;23.40;96.20
73643;DHT22;61938;48.652;9.292;2023-08-08T12:56:44;23.50;94.70
73643;DHT22;61938;48.652;9.292;2023-08-08T12:59:09;23.40;95.70
73643;DHT22;61938;48.652;9.292;2023-08-08T13:01:35;23.30;95.70
73643;DHT22;61938;48.652;9.292;2023-08-08T13:04:01;23.50;97.30
73643;DHT22;61938;48.652;9.292;2023-08-08T13:06:26;23.80;98.90
73643;DHT22;61938;48.652;9.292;2023-08-08T13:08:52;24.10;96.30
73643;DHT22;61938;48.652;9.292;2023-08-08T13:11:18;24.30;97.80
73643;DHT22;61938;48.652;9.292;2023-08-08T13:13:43;24.40;95.90
73643;DHT22;61938;48.652;9.292;2023-08-08T13:16:08;24.50;95.20
73643;DHT22;61938;48.652;9.292;2023-08-08T13:18:36;24.40;94.70
73643;DHT22;61938;48.652;9.292;2023-08-08T13:21:02;24.60;95.10
73643;DHT22;61938;48.652;9.292;2023-08-08T13:23:27;24.20;94.70
73643;DHT22;61938;48.652;9.292;2023-08-08T13:25:53;23.70;94.20
73643;DHT22;61938;48.652;9.292;2023-08-08T13:28:18;23.20;95.00
73643;DHT22;61938;48.652;9.292;2023-08-08T13:30:44;23.00;95.40
73643;DHT22;61938;48.652;9.292;2023-08-08T13:33:09;22.60;95.80
73643;DHT22;61938;48.652;9.292;2023-08-08T13:35:35;22.10;96.30
73643;DHT22;61938;48.652;9.292;2023-08-08T13:38:01;22.00;96.50
73643;DHT22;61938;48.652;9.292;2023-08-08T13:40:26;21.80;96.70
73643;DHT22;61938;48.652;9.292;2023-08-08T13:42:52;21.80;97.50
73643;DHT22;61938;48.652;9.292;2023-08-08T13:45:18;22.10;99.90
73643;DHT22;61938;48.652;9.292;2023-08-08T13:47:44;22.80;99.40
73643;DHT22;61938;48.652;9.292;2023-08-08T13:50:10;23.00;97.30
73643;DHT22;61938;48.652;9.292;2023-08-08T13:52:35;22.60;97.80
73643;DHT22;61938;48.652;9.292;2023-08-08T13:55:01;22.50;97.90
73643;DHT22;61938;48.652;9.292;2023-08-08T13:57:27;22.30;96.50
73643;DHT22;61938;48.652;9.292;2023-08-08T13:59:52;22.10;97.50
73643;DHT22;61938;48.652;9.292;2023-08-08T14:02:18;22.10;99.70
73643;DHT22;61938;48.652;9.292;2023-08-08T14:04:47;22.00;98.80
73643;DHT22;61938;48.652;9.292;2023-08-08T14:07:12;21.90;99.00
73643;DHT22;61938;48.652;9.292;2023-08-08T14:09:38;22.30;98.50
73643;DHT22;61938;48.652;9.292;2023-08-08T14:12:04;22.60;99.80
73643;DHT22;61938;48.652;9.292;2023-08-08T14:14:29;22.90;96.90
73643;DHT22;61938;48.652;9.292;2023-08-08T14:16:55;23.00;98.00
73643;DHT22;61938;48.652;9.292;2023-08-08T14:19:20;22.80;98.10
73643;DHT22;61938;48.652;9.292;2023-08-08T14:21:46;22.40;95.90
73643;DHT22;61938;48.652;9.292;2023-08-08T14:24:12;22.30;98.70
73643;DHT22;61938;48.652;9.292;2023-08-08T14:26:37;22.30;99.00
73643;DHT22;61938;48.652;9.292;2023-08-08T14:29:03;22.20;99.90
73643;DHT22;61938;48.652;9.292;2023-08-08T14:31:30;21.90;98.00
73643;DHT22;61938;48.652;9.292;2023-08-08T14:33:55;21.90;99.90
73643;DHT22;61938;48.652;9.292;2023-08-08T14:36:21;21.80;98.20
73643;DHT22;61938;48.652;9.292;2023-08-08T14:38:46;21.50;97.80
73643;DHT22;61938;48.652;9.292;2023-08-08T14:41:12;21.40;99.10
73643;DHT22;61938;48.652;9.292;2023-08-08T14:43:38;21.30;99.60
73643;DHT22;61938;48.652;9.292;2023-08-08T14:46:03;21.10;99.90
73643;DHT22;61938;48.652;9.292;2023-08-08T14:48:29;20.90;99.90
73643;DHT22;61938;48.652;9.292;2023-08-08T14:50:54;20.90;99.90
73643;DHT22;61938;48.652;9.292;2023-08-08T14:53:20;20.80;99.90
73643;DHT22;61938;48.652;9.292;2023-08-08T14:55:46;20.70;99.90
73643;DHT22;61938;48.652;9.292;2023-08-08T14:58:13;20.70;99.90
73643;DHT22;61938;48.652;9.292;2023-08-08T15:00:39;20.80;99.90
73643;DHT22;61938;48.652;9.292;2023-08-08T15:03:04;20.90;99.90
73643;DHT22;61938;48.652;9.292;2023-08-08T15:05:30;21.20;99.90
73643;DHT22;61938;48.652;9.292;2023-08-08T15:07:56;21.40;99.90
73643;DHT22;61938;48.652;9.292;2023-08-08T15:10:22;21.50;99.90
73643;DHT22;61938;48.652;9.292;2023-08-08T15:12:47;21.50;99.90
73643;DHT22;61938;48.652;9.292;2023-08-08T15:15:12;21.60;99.90
73643;DHT22;61938;48.652;9.292;2023-08-08T15:17:39;21.90;99.90
73643;DHT22;61938;48.652;9.292;2023-08-08T15:20:05;21.90;99.90
73643;DHT22;61938;48.652;9.292;2023-08-08T15:22:31;21.70;99.90
73643;DHT22;61938;48.652;9.292;2023-08-08T15:24:56;21.60;99.90
73643;DHT22;61938;48.652;9.292;2023-08-08T15:27:22;21.30;99.90